Time;durP1;ratioP1;P1;durP2;ratioP2;P2;SDS_P1;SDS_P2;PMS_P1;PMS_P2;Temp;Humidity;BMP_temperature;BMP_pressure;BME280_temperature;BME280_humidity;BME280_pressure;Samples;Min_cycle;Max_cycle;Signal;HPM_P1;HPM_P2
2023/10/03 00:01:37;;;;;;;6.20;1.20;;;;;;;;;;5019396;28;20045;-37
2023/10/03 00:04:07;;;;;;;4.40;1.07;;;;;;;;;;5022498;28;20041;-37
2023/10/03 00:06:35;;;;;;;4.93;1.20;;;;;;;;;;5019202;28;20075;-37
2023/10/03 00:09:05;;;;;;;4.68;1.13;;;;;;;;;;5021433;28;20107;-38
2023/10/03 00:11:35;;;;;;;4.68;1.00;;;;;;;;;;5021934;28;20050;-37
2023/10/03 00:14:07;;;;;;;4.93;1.27;;;;;;;;;;5020727;28;20033;-37
2023/10/03 00:16:35;;;;;;;5.73;1.00;;;;;;;;;;5022056;28;20040;-38
2023/10/03 00:19:04;;;;;;;4.85;0.90;;;;;;;;;;5026199;28;20402;-37
2023/10/03 00:21:33;;;;;;;4.97;1.40;;;;;;;;;;5022438;28;20033;-38
2023/10/03 00:24:02;;;;;;;5.22;1.27;;;;;;;;;;5021284;28;20522;-37
2023/10/03 00:26:31;;;;;;;5.40;1.75;;;;;;;;;;5019047;28;20049;-38
2023/10/03 00:29:00;;;;;;;4.50;1.00;;;;;;;;;;5023370;28;20052;-37
2023/10/03 00:31:29;;;;;;;4.43;0.98;;;;;;;;;;5025983;28;20553;-37
2023/10/03 00:33:57;;;;;;;3.70;0.77;;;;;;;;;;5025636;28;20107;-38
2023/10/03 00:36:26;;;;;;;4.38;1.10;;;;;;;;;;5029540;28;20132;-38
2023/10/03 00:38:54;;;;;;;4.60;0.98;;;;;;;;;;5025871;28;20041;-38
2023/10/03 00:41:23;;;;;;;4.33;1.00;;;;;;;;;;5035154;28;20041;-38
2023/10/03 00:43:54;;;;;;;5.20;1.10;;;;;;;;;;5020074;28;20052;-38
2023/10/03 00:46:26;;;;;;;4.72;1.20;;;;;;;;;;5022896;28;20300;-38
2023/10/03 00:48:55;;;;;;;5.82;1.23;;;;;;;;;;5032049;28;20057;-37
2023/10/03 00:51:23;;;;;;;4.88;1.20;;;;;;;;;;5021500;28;20577;-37
2023/10/03 00:53:56;;;;;;;5.17;1.60;;;;;;;;;;5031583;28;20048;-38
2023/10/03 00:56:24;;;;;;;5.50;1.50;;;;;;;;;;5020918;28;20127;-37
2023/10/03 00:58:52;;;;;;;5.70;2.55;;;;;;;;;;5030132;28;20128;-37
2023/10/03 01:01:21;;;;;;;7.63;3.03;;;;;;;;;;5019845;28;20272;-37
2023/10/03 01:03:50;;;;;;;6.28;2.65;;;;;;;;;;5026067;28;20102;-37
2023/10/03 01:06:19;;;;;;;7.10;3.00;;;;;;;;;;5029860;28;20044;-39
2023/10/03 01:08:48;;;;;;;7.07;3.05;;;;;;;;;;4999580;28;20040;-37
2023/10/03 01:11:18;;;;;;;7.95;3.00;;;;;;;;;;5007129;28;20533;-37
2023/10/03 01:13:49;;;;;;;7.63;2.95;;;;;;;;;;5000027;28;20041;-37
2023/10/03 01:16:24;;;;;;;9.35;3.55;;;;;;;;;;5031720;28;20040;-37
2023/10/03 01:18:58;;;;;;;7.70;3.03;;;;;;;;;;5020853;28;20043;-37
2023/10/03 01:21:28;;;;;;;7.38;3.15;;;;;;;;;;5023508;28;20064;-37
2023/10/03 01:24:03;;;;;;;7.65;2.65;;;;;;;;;;5023070;28;20044;-37
2023/10/03 01:26:36;;;;;;;8.30;3.78;;;;;;;;;;5029150;28;20751;-38
2023/10/03 01:29:05;;;;;;;9.38;3.45;;;;;;;;;;5025479;28;20040;-37
2023/10/03 01:31:33;;;;;;;9.53;3.30;;;;;;;;;;5018602;28;20807;-37
2023/10/03 01:34:01;;;;;;;7.28;3.17;;;;;;;;;;5026659;28;20044;-37
2023/10/03 01:36:29;;;;;;;7.10;2.88;;;;;;;;;;5015880;28;20666;-37
2023/10/03 01:38:58;;;;;;;7.70;2.90;;;;;;;;;;5026864;28;20072;-37
2023/10/03 01:41:26;;;;;;;7.53;2.63;;;;;;;;;;5017459;28;20056;-37
2023/10/03 01:43:55;;;;;;;8.70;2.60;;;;;;;;;;5020495;28;20484;-37
2023/10/03 01:46:23;;;;;;;11.38;3.17;;;;;;;;;;5032943;28;20048;-38
2023/10/03 01:48:50;;;;;;;7.80;3.10;;;;;;;;;;5019518;28;20052;-37
2023/10/03 01:51:18;;;;;;;10.68;2.83;;;;;;;;;;5029561;28;20041;-37
2023/10/03 01:53:46;;;;;;;8.35;2.85;;;;;;;;;;5021889;28;20518;-37
2023/10/03 01:56:15;;;;;;;9.40;2.70;;;;;;;;;;5030368;28;20056;-37
2023/10/03 01:58:43;;;;;;;9.18;2.30;;;;;;;;;;5024636;28;20049;-37
2023/10/03 02:01:12;;;;;;;7.80;2.85;;;;;;;;;;5026691;28;20049;-37
2023/10/03 02:03:41;;;;;;;7.90;2.67;;;;;;;;;;5023845;28;20474;-37
2023/10/03 02:06:10;;;;;;;6.85;3.03;;;;;;;;;;5029882;28;20110;-37
2023/10/03 02:08:37;;;;;;;7.90;3.00;;;;;;;;;;5026314;28;20457;-37
2023/10/03 02:11:05;;;;;;;6.82;2.65;;;;;;;;;;5029579;28;20040;-37
2023/10/03 02:13:38;;;;;;;7.07;2.65;;;;;;;;;;5022360;28;20041;-38
2023/10/03 02:16:07;;;;;;;8.38;2.45;;;;;;;;;;5014718;28;20441;-37
2023/10/03 02:18:35;;;;;;;8.60;3.88;;;;;;;;;;5024446;28;20542;-37
2023/10/03 02:21:03;;;;;;;8.87;3.10;;;;;;;;;;5028224;28;20140;-37
2023/10/03 02:23:32;;;;;;;7.28;3.10;;;;;;;;;;5030621;28;20047;-37
2023/10/03 02:26:07;;;;;;;10.38;3.80;;;;;;;;;;5022247;28;20037;-37
2023/10/03 02:28:36;;;;;;;10.38;3.78;;;;;;;;;;5034759;28;20514;-38
2023/10/03 02:31:07;;;;;;;8.43;3.45;;;;;;;;;;5021692;28;20049;-37
2023/10/03 02:33:37;;;;;;;10.03;3.40;;;;;;;;;;5030711;28;20041;-37
2023/10/03 02:36:07;;;;;;;8.65;3.28;;;;;;;;;;5031436;28;20087;-37
2023/10/03 02:38:37;;;;;;;8.43;2.95;;;;;;;;;;5023706;28;20033;-37
2023/10/03 02:41:10;;;;;;;8.98;3.20;;;;;;;;;;4666075;28;10000760;-37
2023/10/03 02:43:42;;;;;;;8.80;3.47;;;;;;;;;;5019877;28;20601;-37
2023/10/03 02:46:12;;;;;;;10.33;3.20;;;;;;;;;;5021150;28;20048;-38
2023/10/03 02:48:44;;;;;;;12.85;3.25;;;;;;;;;;5023270;28;20521;-37
2023/10/03 02:51:12;;;;;;;10.55;3.10;;;;;;;;;;5012310;28;20115;-37
2023/10/03 02:53:40;;;;;;;7.13;3.00;;;;;;;;;;5025013;28;20064;-37
2023/10/03 02:56:09;;;;;;;8.82;2.90;;;;;;;;;;5011936;28;20037;-38
2023/10/03 02:58:36;;;;;;;9.37;2.90;;;;;;;;;;5027875;28;20056;-37
2023/10/03 03:01:05;;;;;;;10.57;3.28;;;;;;;;;;4670980;28;10000450;-37
2023/10/03 03:03:34;;;;;;;8.75;2.63;;;;;;;;;;5009786;28;20045;-38
2023/10/03 03:06:02;;;;;;;10.10;2.50;;;;;;;;;;5022893;28;20135;-38
2023/10/03 03:08:32;;;;;;;7.40;2.60;;;;;;;;;;5022480;28;20052;-37
2023/10/03 03:11:03;;;;;;;9.10;2.85;;;;;;;;;;5019376;28;20047;-37
2023/10/03 03:13:35;;;;;;;10.25;3.08;;;;;;;;;;5015041;28;21001;-37
2023/10/03 03:16:03;;;;;;;10.75;2.78;;;;;;;;;;5013013;28;20483;-38
2023/10/03 03:18:36;;;;;;;7.70;2.33;;;;;;;;;;5024081;28;20048;-37
2023/10/03 03:21:08;;;;;;;8.35;2.35;;;;;;;;;;5022020;28;20224;-37
2023/10/03 03:23:36;;;;;;;7.30;2.42;;;;;;;;;;5015055;28;20442;-37
2023/10/03 03:26:17;;;;;;;7.45;2.30;;;;;;;;;;5023484;28;20045;-37
2023/10/03 03:28:49;;;;;;;6.57;2.30;;;;;;;;;;5021221;28;20052;-37
2023/10/03 03:31:21;;;;;;;6.80;2.20;;;;;;;;;;5008127;28;20757;-38
2023/10/03 03:33:51;;;;;;;8.93;2.28;;;;;;;;;;5022419;28;20110;-37
2023/10/03 03:36:23;;;;;;;7.25;2.30;;;;;;;;;;4966942;28;21309;-38
2023/10/03 03:38:52;;;;;;;8.98;2.30;;;;;;;;;;5010113;28;20254;-37
2023/10/03 03:41:20;;;;;;;9.15;2.55;;;;;;;;;;5026784;28;20041;-37
2023/10/03 03:43:48;;;;;;;9.10;2.53;;;;;;;;;;5020969;28;20086;-38
2023/10/03 03:46:18;;;;;;;8.27;2.25;;;;;;;;;;5021019;28;20484;-37
2023/10/03 03:48:46;;;;;;;8.35;2.55;;;;;;;;;;5021202;28;20053;-37
2023/10/03 03:51:16;;;;;;;6.72;2.05;;;;;;;;;;5026871;28;20064;-37
2023/10/03 03:53:45;;;;;;;5.68;2.00;;;;;;;;;;5020617;28;20407;-37
2023/10/03 03:56:13;;;;;;;7.13;2.13;;;;;;;;;;5018002;28;20055;-37
2023/10/03 03:58:44;;;;;;;8.95;2.08;;;;;;;;;;5026344;28;20037;-37
2023/10/03 04:01:14;;;;;;;8.10;2.10;;;;;;;;;;5021053;28;20042;-37
2023/10/03 04:03:43;;;;;;;6.50;1.90;;;;;;;;;;5022508;28;20052;-38
2023/10/03 04:06:11;;;;;;;9.43;2.10;;;;;;;;;;5020530;28;20110;-37
2023/10/03 04:08:41;;;;;;;5.33;1.70;;;;;;;;;;5019968;28;20037;-38
2023/10/03 04:11:27;;;;;;;7.45;2.03;;;;;;;;;;5027688;28;20047;-37
2023/10/03 04:13:55;;;;;;;6.65;1.73;;;;;;;;;;5022658;28;20241;-37
2023/10/03 04:16:26;;;;;;;5.40;1.42;;;;;;;;;;5027885;28;20076;-37
2023/10/03 04:18:54;;;;;;;8.50;2.40;;;;;;;;;;5024649;28;20136;-37
2023/10/03 04:21:27;;;;;;;7.83;1.93;;;;;;;;;;5020146;28;20060;-39
2023/10/03 04:23:59;;;;;;;8.20;2.00;;;;;;;;;;5028699;28;20043;-37
2023/10/03 04:26:28;;;;;;;8.75;2.13;;;;;;;;;;5024161;28;20045;-37
2023/10/03 04:28:58;;;;;;;6.93;1.73;;;;;;;;;;5031663;28;20147;-37
2023/10/03 04:31:26;;;;;;;5.85;2.05;;;;;;;;;;5029148;28;20045;-37
2023/10/03 04:33:55;;;;;;;6.13;1.80;;;;;;;;;;5020630;28;20048;-38
2023/10/03 04:36:25;;;;;;;6.35;1.90;;;;;;;;;;5024989;28;20045;-38
2023/10/03 04:38:54;;;;;;;6.63;2.05;;;;;;;;;;5020759;28;20124;-38
2023/10/03 04:41:24;;;;;;;7.50;2.20;;;;;;;;;;5025995;28;20037;-37
2023/10/03 04:43:55;;;;;;;7.88;2.40;;;;;;;;;;5019776;28;20044;-37
2023/10/03 04:46:24;;;;;;;7.20;2.03;;;;;;;;;;5018967;28;20038;-38
2023/10/03 04:48:52;;;;;;;8.20;1.98;;;;;;;;;;5031242;28;20108;-37
2023/10/03 04:51:19;;;;;;;6.47;1.90;;;;;;;;;;5013029;28;20045;-38
2023/10/03 04:53:47;;;;;;;7.15;2.10;;;;;;;;;;5028609;28;20126;-37
2023/10/03 04:56:17;;;;;;;7.40;2.20;;;;;;;;;;5022090;28;20045;-37
2023/10/03 04:58:46;;;;;;;6.73;1.97;;;;;;;;;;5024136;28;20033;-37
2023/10/03 05:01:14;;;;;;;6.47;2.03;;;;;;;;;;5018466;28;20052;-37
2023/10/03 05:03:43;;;;;;;7.63;2.17;;;;;;;;;;4675069;28;10000581;-37
2023/10/03 05:06:11;;;;;;;5.57;1.67;;;;;;;;;;5027498;28;20052;-38
2023/10/03 05:08:39;;;;;;;8.50;2.55;;;;;;;;;;5021192;28;20471;-37
2023/10/03 05:11:08;;;;;;;9.37;1.70;;;;;;;;;;5014829;28;20041;-37
2023/10/03 05:13:36;;;;;;;8.75;2.00;;;;;;;;;;5022654;28;20095;-37
2023/10/03 05:16:07;;;;;;;6.82;1.80;;;;;;;;;;5022236;28;20041;-37
2023/10/03 05:18:35;;;;;;;7.05;2.25;;;;;;;;;;5023729;28;20044;-37
2023/10/03 05:21:03;;;;;;;7.25;1.92;;;;;;;;;;5020301;28;20487;-37
2023/10/03 05:23:32;;;;;;;6.13;2.07;;;;;;;;;;5029251;28;20052;-37
2023/10/03 05:26:02;;;;;;;6.95;2.15;;;;;;;;;;5023253;28;20045;-37
2023/10/03 05:28:30;;;;;;;5.53;1.85;;;;;;;;;;5023421;28;20068;-37
2023/10/03 05:30:59;;;;;;;9.00;2.45;;;;;;;;;;5025160;28;20064;-37
2023/10/03 05:33:28;;;;;;;8.05;1.95;;;;;;;;;;5023722;28;20037;-37
2023/10/03 05:35:56;;;;;;;7.30;1.93;;;;;;;;;;5013741;28;20122;-37
2023/10/03 05:38:24;;;;;;;7.43;2.10;;;;;;;;;;5026830;28;20044;-37
2023/10/03 05:40:52;;;;;;;8.45;2.50;;;;;;;;;;5023753;28;20045;-37
2023/10/03 05:43:20;;;;;;;7.60;1.85;;;;;;;;;;5024022;28;20041;-37
2023/10/03 05:45:49;;;;;;;6.97;2.22;;;;;;;;;;5018285;28;20045;-37
2023/10/03 05:48:21;;;;;;;6.63;2.00;;;;;;;;;;5015637;28;20044;-37
2023/10/03 05:50:52;;;;;;;8.60;2.40;;;;;;;;;;5021138;28;20118;-37
2023/10/03 05:53:20;;;;;;;7.45;2.20;;;;;;;;;;5023308;28;20049;-37
2023/10/03 05:55:47;;;;;;;6.45;2.08;;;;;;;;;;5017767;28;20034;-37
2023/10/03 05:58:15;;;;;;;7.82;2.17;;;;;;;;;;5020505;28;20490;-37
2023/10/03 06:00:43;;;;;;;8.60;2.50;;;;;;;;;;5020044;28;20040;-37
2023/10/03 06:03:10;;;;;;;6.63;2.17;;;;;;;;;;5019413;28;20057;-37
2023/10/03 06:05:39;;;;;;;7.53;2.90;;;;;;;;;;5026454;28;20128;-37
2023/10/03 06:08:09;;;;;;;9.48;2.67;;;;;;;;;;5014521;28;20488;-37
2023/10/03 06:10:36;;;;;;;9.40;2.90;;;;;;;;;;5017125;28;20033;-37
2023/10/03 06:13:05;;;;;;;7.40;2.10;;;;;;;;;;5024588;28;21949;-38
2023/10/03 06:15:36;;;;;;;8.88;2.60;;;;;;;;;;5016223;28;20059;-37
2023/10/03 06:18:04;;;;;;;8.18;3.13;;;;;;;;;;5020097;28;20543;-37
2023/10/03 06:20:32;;;;;;;7.82;2.83;;;;;;;;;;5030062;28;20048;-37
2023/10/03 06:23:00;;;;;;;7.43;2.58;;;;;;;;;;5019319;28;20036;-37
2023/10/03 06:25:29;;;;;;;7.83;2.87;;;;;;;;;;5022123;28;20045;-37
2023/10/03 06:27:57;;;;;;;8.60;2.78;;;;;;;;;;5040372;28;20052;-37
2023/10/03 06:30:24;;;;;;;10.60;3.30;;;;;;;;;;5023040;28;20048;-38
2023/10/03 06:32:52;;;;;;;8.32;2.80;;;;;;;;;;5020064;28;20045;-37
2023/10/03 06:35:20;;;;;;;7.40;2.70;;;;;;;;;;5026237;28;20045;-37
2023/10/03 06:37:49;;;;;;;9.37;2.80;;;;;;;;;;5014334;28;20091;-37
2023/10/03 06:40:17;;;;;;;8.75;2.50;;;;;;;;;;5022694;28;20076;-37
2023/10/03 06:42:46;;;;;;;7.38;2.80;;;;;;;;;;5021821;28;20486;-38
2023/10/03 06:45:14;;;;;;;9.68;3.28;;;;;;;;;;5023955;28;20057;-37
2023/10/03 06:47:43;;;;;;;7.88;2.65;;;;;;;;;;5020657;28;20313;-38
2023/10/03 06:50:11;;;;;;;7.90;1.90;;;;;;;;;;5028973;28;20041;-37
2023/10/03 06:52:39;;;;;;;7.40;2.55;;;;;;;;;;5021506;28;20491;-38
2023/10/03 06:55:10;;;;;;;6.97;2.50;;;;;;;;;;5021745;28;20071;-37
2023/10/03 06:57:40;;;;;;;8.05;2.72;;;;;;;;;;5016627;28;20041;-37
2023/10/03 07:00:13;;;;;;;9.13;2.90;;;;;;;;;;5025798;28;20491;-37
2023/10/03 07:02:41;;;;;;;9.53;2.33;;;;;;;;;;5021219;28;20374;-37
2023/10/03 07:05:10;;;;;;;9.35;2.67;;;;;;;;;;5017762;28;20112;-37
2023/10/03 07:07:37;;;;;;;9.70;2.60;;;;;;;;;;5025804;28;20038;-37
2023/10/03 07:10:07;;;;;;;10.95;2.20;;;;;;;;;;5021460;28;20079;-37
2023/10/03 07:12:34;;;;;;;11.57;3.00;;;;;;;;;;5018027;28;20043;-37
2023/10/03 07:15:02;;;;;;;9.10;3.07;;;;;;;;;;5022913;28;20370;-37
2023/10/03 07:17:31;;;;;;;7.47;2.15;;;;;;;;;;5022106;28;20470;-37
2023/10/03 07:19:59;;;;;;;8.18;2.67;;;;;;;;;;5014408;28;20678;-37
2023/10/03 07:22:27;;;;;;;9.82;2.67;;;;;;;;;;5012565;28;20044;-37
2023/10/03 07:24:55;;;;;;;7.15;2.40;;;;;;;;;;5013639;28;20041;-37
2023/10/03 07:27:23;;;;;;;7.97;2.23;;;;;;;;;;5008389;28;20045;-37
2023/10/03 07:29:50;;;;;;;11.00;2.22;;;;;;;;;;5016987;28;20048;-38
2023/10/03 07:32:19;;;;;;;7.97;2.00;;;;;;;;;;5013913;28;20041;-37
2023/10/03 07:34:47;;;;;;;9.25;2.30;;;;;;;;;;5018858;28;20407;-38
2023/10/03 07:37:15;;;;;;;9.43;3.22;;;;;;;;;;4987288;28;20059;-37
2023/10/03 07:39:43;;;;;;;7.10;2.63;;;;;;;;;;5014920;28;20040;-38
2023/10/03 07:42:11;;;;;;;11.98;2.55;;;;;;;;;;5029116;28;20052;-38
2023/10/03 07:44:39;;;;;;;8.50;2.72;;;;;;;;;;5011942;28;20049;-37
2023/10/03 07:47:24;;;;;;;9.88;2.10;;;;;;;;;;5024764;28;20050;-38
2023/10/03 07:49:53;;;;;;;9.68;2.97;;;;;;;;;;5022468;28;20140;-37
2023/10/03 07:52:21;;;;;;;9.97;2.43;;;;;;;;;;5024216;28;20045;-37
2023/10/03 07:54:54;;;;;;;9.30;2.78;;;;;;;;;;5018077;28;20037;-37
2023/10/03 07:57:23;;;;;;;8.68;2.58;;;;;;;;;;5023765;28;20242;-42
2023/10/03 07:59:51;;;;;;;9.13;1.88;;;;;;;;;;5019244;28;20649;-37
2023/10/03 08:02:18;;;;;;;7.33;2.01;;;;;;;;;;4674305;28;10000908;-37
2023/10/03 08:04:47;;;;;;;7.27;2.40;;;;;;;;;;5011985;28;20044;-37
2023/10/03 08:07:22;;;;;;;7.07;2.30;;;;;;;;;;5009754;28;20073;-37
2023/10/03 08:09:50;;;;;;;8.15;2.53;;;;;;;;;;5017919;28;20044;-38
2023/10/03 08:12:23;;;;;;;9.05;2.25;;;;;;;;;;5018709;28;20422;-38
2023/10/03 08:14:53;;;;;;;12.73;2.75;;;;;;;;;;5020103;28;20037;-37
2023/10/03 08:17:25;;;;;;;10.37;2.60;;;;;;;;;;5022158;28;20037;-37
2023/10/03 08:19:55;;;;;;;8.57;2.50;;;;;;;;;;4662494;28;9999938;-37
2023/10/03 08:22:24;;;;;;;9.77;2.10;;;;;;;;;;5026877;28;20546;-38
2023/10/03 08:24:51;;;;;;;5.68;1.65;;;;;;;;;;5016470;28;20045;-37
2023/10/03 08:27:21;;;;;;;10.43;2.00;;;;;;;;;;5027312;28;20041;-38
2023/10/03 08:29:53;;;;;;;10.13;1.77;;;;;;;;;;5018218;28;20124;-37
2023/10/03 08:32:25;;;;;;;8.60;2.40;;;;;;;;;;5007569;28;20049;-38
2023/10/03 08:34:53;;;;;;;6.03;1.50;;;;;;;;;;5012263;28;20061;-38
2023/10/03 08:37:21;;;;;;;9.32;2.08;;;;;;;;;;4977258;28;21011;-38
2023/10/03 08:39:51;;;;;;;9.48;2.03;;;;;;;;;;4992025;28;20511;-37
2023/10/03 08:42:21;;;;;;;7.85;2.40;;;;;;;;;;5002386;28;20056;-37
2023/10/03 08:44:51;;;;;;;15.30;3.17;;;;;;;;;;5002103;28;20060;-38
2023/10/03 08:47:28;;;;;;;9.00;2.17;;;;;;;;;;5002400;28;20166;-37
2023/10/03 08:50:10;;;;;;;9.85;1.95;;;;;;;;;;5001065;28;20041;-37
2023/10/03 08:52:46;;;;;;;8.05;1.88;;;;;;;;;;5021675;28;20175;-37
2023/10/03 08:55:19;;;;;;;6.88;1.48;;;;;;;;;;5026733;28;20033;-37
2023/10/03 08:57:48;;;;;;;8.93;2.03;;;;;;;;;;5007321;28;20249;-37
2023/10/03 09:00:17;;;;;;;6.60;1.70;;;;;;;;;;5003844;28;20527;-37
2023/10/03 09:02:46;;;;;;;9.65;2.53;;;;;;;;;;4998656;28;20061;-37
2023/10/03 09:05:21;;;;;;;12.60;1.90;;;;;;;;;;4996151;28;20659;-37
2023/10/03 09:07:49;;;;;;;11.43;2.00;;;;;;;;;;5003021;28;20076;-37
2023/10/03 09:10:23;;;;;;;9.40;1.70;;;;;;;;;;4999217;28;20502;-37
2023/10/03 09:12:51;;;;;;;7.70;1.80;;;;;;;;;;4994490;28;20118;-38
2023/10/03 09:15:22;;;;;;;8.05;2.42;;;;;;;;;;4995948;28;20106;-37
2023/10/03 09:17:50;;;;;;;11.40;2.28;;;;;;;;;;5001563;28;20037;-37
2023/10/03 09:20:21;;;;;;;8.18;1.98;;;;;;;;;;4993090;28;20071;-37
2023/10/03 09:22:51;;;;;;;8.63;2.03;;;;;;;;;;5018511;28;20037;-37
2023/10/03 09:25:21;;;;;;;8.10;1.85;;;;;;;;;;5023495;28;20052;-38
2023/10/03 09:27:59;;;;;;;13.95;2.30;;;;;;;;;;5009319;28;20041;-37
2023/10/03 09:30:37;;;;;;;8.38;1.90;;;;;;;;;;5025356;28;20052;-38
2023/10/03 09:33:05;;;;;;;7.95;2.20;;;;;;;;;;5016451;28;20124;-37
2023/10/03 09:35:34;;;;;;;9.50;1.77;;;;;;;;;;5008901;28;20033;-37
2023/10/03 09:38:06;;;;;;;7.57;1.70;;;;;;;;;;5027580;28;20406;-37
2023/10/03 09:40:49;;;;;;;12.75;2.15;;;;;;;;;;5007693;28;20029;-37
2023/10/03 09:43:19;;;;;;;9.68;2.05;;;;;;;;;;5023245;28;20041;-37
2023/10/03 09:45:47;;;;;;;9.63;2.35;;;;;;;;;;5009661;28;20045;-37
2023/10/03 09:48:16;;;;;;;7.77;2.00;;;;;;;;;;5031077;28;20840;-38
2023/10/03 09:50:51;;;;;;;8.63;2.03;;;;;;;;;;5012379;28;20055;-37
2023/10/03 09:53:27;;;;;;;8.70;1.98;;;;;;;;;;5023526;28;20049;-37
2023/10/03 09:55:58;;;;;;;9.35;2.20;;;;;;;;;;5017538;28;20060;-37
2023/10/03 09:58:31;;;;;;;9.48;2.30;;;;;;;;;;5013640;28;20136;-37
2023/10/03 10:00:59;;;;;;;6.83;1.93;;;;;;;;;;5017372;28;20991;-37
2023/10/03 10:03:33;;;;;;;6.65;2.15;;;;;;;;;;5018943;28;20979;-37
2023/10/03 10:06:12;;;;;;;8.65;2.15;;;;;;;;;;5026699;28;20049;-37
2023/10/03 10:08:42;;;;;;;6.80;2.10;;;;;;;;;;5009471;28;20043;-37
2023/10/03 10:11:12;;;;;;;9.60;2.17;;;;;;;;;;5024171;28;20127;-38
2023/10/03 10:14:00;;;;;;;8.93;2.17;;;;;;;;;;5023828;28;20044;-37
2023/10/03 10:16:28;;;;;;;7.40;2.03;;;;;;;;;;5010369;28;20056;-38
2023/10/03 10:19:00;;;;;;;9.00;2.13;;;;;;;;;;5017740;28;20044;-38
2023/10/03 10:21:31;;;;;;;6.37;1.50;;;;;;;;;;4669344;28;9999971;-38
2023/10/03 10:24:20;;;;;;;9.45;1.70;;;;;;;;;;5020635;28;20136;-38
2023/10/03 10:26:52;;;;;;;11.60;2.60;;;;;;;;;;5003403;28;20040;-37
2023/10/03 10:29:21;;;;;;;6.78;1.67;;;;;;;;;;5026614;28;20120;-38
2023/10/03 10:31:57;;;;;;;8.57;2.13;;;;;;;;;;5022255;28;20671;-38
2023/10/03 10:34:47;;;;;;;8.00;1.87;;;;;;;;;;5021625;28;20168;-37
2023/10/03 10:37:18;;;;;;;6.95;1.40;;;;;;;;;;5020593;28;20288;-37
2023/10/03 10:40:21;;;;;;;8.40;1.92;;;;;;;;;;5021161;28;20056;-37
2023/10/03 10:43:00;;;;;;;8.18;1.65;;;;;;;;;;5015354;28;20049;-38
2023/10/03 10:45:37;;;;;;;7.72;1.35;;;;;;;;;;5025622;28;20049;-38
2023/10/03 10:48:06;;;;;;;6.47;1.30;;;;;;;;;;5021507;28;20076;-37
2023/10/03 10:50:53;;;;;;;6.25;1.00;;;;;;;;;;5024322;28;20545;-39
2023/10/03 10:53:21;;;;;;;5.40;1.20;;;;;;;;;;5022741;28;20516;-37
2023/10/03 10:55:49;;;;;;;6.00;1.33;;;;;;;;;;5022240;28;20047;-37
2023/10/03 10:58:19;;;;;;;5.07;0.65;;;;;;;;;;5026482;28;20033;-37
2023/10/03 11:00:49;;;;;;;5.40;0.90;;;;;;;;;;5015086;28;20041;-38
2023/10/03 11:03:21;;;;;;;8.07;1.00;;;;;;;;;;5020856;28;20033;-37
2023/10/03 11:05:50;;;;;;;6.55;1.80;;;;;;;;;;5026630;28;20041;-37
2023/10/03 11:08:18;;;;;;;4.53;1.00;;;;;;;;;;5013032;28;20733;-37
2023/10/03 11:10:52;;;;;;;5.78;1.13;;;;;;;;;;5020332;28;20040;-38
2023/10/03 11:13:22;;;;;;;5.07;1.00;;;;;;;;;;5018882;28;20051;-38
2023/10/03 11:15:50;;;;;;;4.88;1.50;;;;;;;;;;5018509;28;20048;-37
2023/10/03 11:18:18;;;;;;;4.40;1.00;;;;;;;;;;5024370;28;20033;-37
2023/10/03 11:20:47;;;;;;;7.82;1.27;;;;;;;;;;5023421;28;20118;-37
2023/10/03 11:23:15;;;;;;;6.07;1.15;;;;;;;;;;5024612;28;20045;-37
2023/10/03 11:25:52;;;;;;;6.07;0.97;;;;;;;;;;5011081;28;20040;-38
2023/10/03 11:28:22;;;;;;;5.43;0.68;;;;;;;;;;5024301;28;20079;-37
2023/10/03 11:30:59;;;;;;;4.57;0.80;;;;;;;;;;5024087;28;20072;-37
2023/10/03 11:33:27;;;;;;;5.30;0.70;;;;;;;;;;5023518;28;20510;-38
2023/10/03 11:35:55;;;;;;;7.30;1.10;;;;;;;;;;5019667;28;20090;-37
2023/10/03 11:38:24;;;;;;;7.70;1.00;;;;;;;;;;5024042;28;20037;-38
2023/10/03 11:40:52;;;;;;;4.65;0.98;;;;;;;;;;5021698;28;20396;-37
2023/10/03 11:43:23;;;;;;;7.25;1.30;;;;;;;;;;5019679;28;20040;-37
2023/10/03 11:45:55;;;;;;;4.07;0.90;;;;;;;;;;5018286;28;20038;-38
2023/10/03 11:48:26;;;;;;;4.05;0.73;;;;;;;;;;5014010;28;20049;-37
2023/10/03 11:50:54;;;;;;;4.50;1.20;;;;;;;;;;5018379;28;20053;-38
2023/10/03 11:53:22;;;;;;;4.38;0.55;;;;;;;;;;5027791;28;20045;-37
2023/10/03 11:55:52;;;;;;;8.18;1.00;;;;;;;;;;5013146;28;20045;-37
2023/10/03 11:58:20;;;;;;;6.28;0.70;;;;;;;;;;5019343;28;20109;-37
2023/10/03 12:00:51;;;;;;;5.55;0.85;;;;;;;;;;5021860;28;20040;-37
2023/10/03 12:03:19;;;;;;;4.07;0.70;;;;;;;;;;5014754;28;20064;-37
2023/10/03 12:05:49;;;;;;;5.30;0.80;;;;;;;;;;5024043;28;20052;-37
2023/10/03 12:08:17;;;;;;;4.45;0.93;;;;;;;;;;5016462;28;20640;-38
2023/10/03 12:10:45;;;;;;;6.78;1.02;;;;;;;;;;5025492;28;20106;-38
2023/10/03 12:13:14;;;;;;;7.47;0.95;;;;;;;;;;5017705;28;20589;-38
2023/10/03 12:15:42;;;;;;;4.07;0.80;;;;;;;;;;5021124;28;20041;-37
2023/10/03 12:18:15;;;;;;;4.18;0.70;;;;;;;;;;5014640;28;20038;-37
2023/10/03 12:20:44;;;;;;;4.95;1.00;;;;;;;;;;5024710;28;20675;-38
2023/10/03 12:23:12;;;;;;;5.78;1.00;;;;;;;;;;5013298;28;20940;-38
2023/10/03 12:25:39;;;;;;;8.73;1.00;;;;;;;;;;5023218;28;20485;-37
2023/10/03 12:28:10;;;;;;;3.80;0.83;;;;;;;;;;5015076;28;20131;-37
2023/10/03 12:30:38;;;;;;;4.60;0.60;;;;;;;;;;5023109;28;20041;-37
2023/10/03 12:33:05;;;;;;;4.40;0.50;;;;;;;;;;5025375;28;20032;-38
2023/10/03 12:35:35;;;;;;;7.88;0.90;;;;;;;;;;4669616;28;10000666;-38
2023/10/03 12:38:03;;;;;;;7.97;1.27;;;;;;;;;;5019261;28;20139;-37
2023/10/03 12:40:31;;;;;;;6.97;1.48;;;;;;;;;;5023502;28;20041;-38
2023/10/03 12:42:59;;;;;;;6.17;0.93;;;;;;;;;;5022142;28;20049;-38
2023/10/03 12:45:27;;;;;;;5.60;0.70;;;;;;;;;;5027592;28;20041;-38
2023/10/03 12:47:56;;;;;;;4.80;0.90;;;;;;;;;;4999932;28;20418;-38
2023/10/03 12:50:24;;;;;;;8.82;1.88;;;;;;;;;;5021791;28;20045;-38
2023/10/03 12:52:55;;;;;;;7.95;0.82;;;;;;;;;;5002467;28;20037;-38
2023/10/03 12:55:25;;;;;;;4.03;1.00;;;;;;;;;;5022927;28;20414;-38
2023/10/03 12:57:54;;;;;;;3.28;0.63;;;;;;;;;;5014034;28;20041;-37
2023/10/03 13:00:23;;;;;;;4.00;1.00;;;;;;;;;;4662690;28;10000210;-37
2023/10/03 13:02:51;;;;;;;7.15;1.10;;;;;;;;;;5017781;28;21065;-39
2023/10/03 13:05:21;;;;;;;4.10;0.80;;;;;;;;;;5013343;28;20047;-37
2023/10/03 13:07:50;;;;;;;4.95;0.80;;;;;;;;;;5018933;28;20076;-40
2023/10/03 13:10:20;;;;;;;5.73;0.90;;;;;;;;;;5021293;28;20049;-38
2023/10/03 13:12:49;;;;;;;6.38;1.00;;;;;;;;;;5017454;28;20510;-38
2023/10/03 13:15:17;;;;;;;5.15;0.88;;;;;;;;;;4985335;28;20052;-38
2023/10/03 13:17:47;;;;;;;5.07;1.00;;;;;;;;;;5023714;28;20037;-38
2023/10/03 13:20:18;;;;;;;5.75;1.33;;;;;;;;;;5019191;28;20551;-38
2023/10/03 13:22:47;;;;;;;5.27;1.20;;;;;;;;;;5022150;28;20041;-38
2023/10/03 13:25:17;;;;;;;6.43;1.60;;;;;;;;;;5011805;28;20045;-37
2023/10/03 13:27:48;;;;;;;7.20;1.52;;;;;;;;;;5022781;28;20048;-38
2023/10/03 13:30:19;;;;;;;6.05;1.40;;;;;;;;;;4998452;28;20048;-38
2023/10/03 13:32:49;;;;;;;3.75;1.10;;;;;;;;;;5018915;28;20660;-38
2023/10/03 13:35:20;;;;;;;7.73;1.00;;;;;;;;;;4976625;28;20041;-38
2023/10/03 13:37:49;;;;;;;6.28;1.40;;;;;;;;;;5012501;28;20495;-38
2023/10/03 13:40:17;;;;;;;6.22;1.05;;;;;;;;;;4999988;28;20159;-38
2023/10/03 13:42:48;;;;;;;6.03;0.75;;;;;;;;;;5007898;28;20041;-38
2023/10/03 13:45:16;;;;;;;4.78;0.60;;;;;;;;;;4999632;28;20044;-38
2023/10/03 13:47:45;;;;;;;6.20;1.50;;;;;;;;;;5003388;28;20114;-38
2023/10/03 13:50:15;;;;;;;4.40;1.13;;;;;;;;;;5000021;28;20522;-38
2023/10/03 13:52:43;;;;;;;5.18;0.93;;;;;;;;;;5002783;28;20073;-39
2023/10/03 13:55:11;;;;;;;5.70;1.08;;;;;;;;;;4997801;28;20056;-39
2023/10/03 13:57:40;;;;;;;4.40;0.90;;;;;;;;;;5005393;28;20045;-38
2023/10/03 14:00:12;;;;;;;5.80;1.10;;;;;;;;;;4995575;28;20043;-38
2023/10/03 14:02:44;;;;;;;3.97;0.80;;;;;;;;;;5040538;28;20052;-38
2023/10/03 14:05:13;;;;;;;7.90;1.45;;;;;;;;;;5000603;28;20045;-38
2023/10/03 14:07:41;;;;;;;6.82;1.20;;;;;;;;;;5003009;28;20156;-38
2023/10/03 14:10:14;;;;;;;6.10;1.20;;;;;;;;;;5005944;28;20052;-38
2023/10/03 14:12:42;;;;;;;7.10;1.60;;;;;;;;;;4995378;28;20068;-39
2023/10/03 14:15:13;;;;;;;6.22;1.17;;;;;;;;;;5007128;28;20041;-38
2023/10/03 14:17:45;;;;;;;6.75;1.05;;;;;;;;;;5002138;28;20049;-39
2023/10/03 14:20:12;;;;;;;8.30;1.60;;;;;;;;;;5007180;28;20593;-38
2023/10/03 14:22:41;;;;;;;9.05;1.58;;;;;;;;;;4998526;28;20053;-38
2023/10/03 14:25:11;;;;;;;5.67;1.50;;;;;;;;;;5000614;28;20707;-38
2023/10/03 14:27:41;;;;;;;5.95;1.08;;;;;;;;;;4999094;28;20041;-37
2023/10/03 14:30:10;;;;;;;7.45;1.60;;;;;;;;;;4993370;28;20742;-38
2023/10/03 14:32:40;;;;;;;6.82;1.40;;;;;;;;;;4987030;28;20060;-38
2023/10/03 14:35:11;;;;;;;6.03;0.70;;;;;;;;;;4996406;28;20049;-39
2023/10/03 14:37:39;;;;;;;11.47;1.47;;;;;;;;;;4991779;28;20487;-38
2023/10/03 14:40:09;;;;;;;8.93;2.05;;;;;;;;;;4991918;28;20041;-38
2023/10/03 14:42:39;;;;;;;10.23;2.00;;;;;;;;;;5001821;28;20053;-38
2023/10/03 14:45:08;;;;;;;9.05;1.52;;;;;;;;;;4999929;28;20413;-38
2023/10/03 14:47:37;;;;;;;6.93;1.40;;;;;;;;;;5007977;28;20140;-39
2023/10/03 14:50:07;;;;;;;9.77;1.43;;;;;;;;;;5002933;28;20086;-38
2023/10/03 14:52:34;;;;;;;11.00;1.80;;;;;;;;;;4999436;28;21002;-37
2023/10/03 14:55:02;;;;;;;15.57;2.15;;;;;;;;;;5002376;28;20381;-38
2023/10/03 14:57:30;;;;;;;6.45;1.35;;;;;;;;;;5000067;28;20056;-39